Terminal Aerodrome Forecast
Issued by NWS

Home | Current Version | Previous Version | Text Only | Print | Product List | Glossary Off
Versions: 1 2 3 4 5 6 7 8 9 10 11 12 13 14 15 16 17 18 19 20 21 22 23 24 25 26 27

000
FTUS43 KGRB 291309 AAB
TAFRHI
TAF AMD
KRHI 291309Z 2913/3012 19003KT P6SM BKN006 OVC015
      TEMPO 2913/2916 31020KT 2SM TSRA BR SCT006CB OVC025
     FM291600 21007KT P6SM SCT024 BKN060
     FM300000 22004KT P6SM SCT060 BKN090
     FM300600 23003KT 5SM BR BKN045 OVC080
     FM300900 25003KT 3SM BR BKN040=

USA.gov is the U.S. government's official web portal to all federal, state and local government web resources and services.